X  Sluiten METAR luchtvaart weer gegevens      EHGG Eelde Airport
Temperatuur
11°C Temperatuur
9°C Dauwpunt
88% Vochtigheid



Wind
23 KM/U
14 MPH
6 M/S
12 KTS



260°
West
Huidig weer

Wat bewolking Wat bewolking
Luchtdruk 990.92 (hPa) - 29.26 (inHg)
Zicht 6.2 (mijl) - 10 (km)
Vliegveld
Vliegveld code EHGG

Locatie : Eelde Airport
Afstand: 50 (km)

Metar:
EHGG 210755Z AUTO 26012KT 210V290 9999 FEW025 11/09 Q0991 TEMPO 28015G25KT 7000 -SHRA FEW030TCU

Tijd: 21-10-2021 09:55 CEST